x

Shumagin Islands - 85nm South Of Sand Point, Ak (46075) Wave Buoy

9:50 - Sun 19th Apr 2015 All times are UTC.

  • Sig Wave height 14.1ft
  • Peak Period 8s
  • Average Period 7s
  • Wind
    31mph, 40mph gusts
  • Sea Temp 42°f
  • Luft Temp 35°f
  • Sea Pressure 1004mb

More Historic Weather Station data

Upgrade to MSW Pro to gain access to the past 30 days of data for over 8000 Wavebouys and Weather Stations around the globe.

Join Pro

Comparision Forecast

View Surf forecast
   
So 04/19 9:50 14ft 8s 7s 31 40 mph 1004mb 42f 35f
8:50 15ft 9s 7s 34 43 mph 1002.5mb 42f 35f
7:50 15.5ft 10s 7s 36 43 mph 1000.8mb 42f 35f
6:50 15.5ft 9s 7s 36 47 mph 999.1mb 42f 34f
5:50 15.5ft 10s 7s 34 43 mph 997.5mb 42f 35f
4:50 15ft 9s 7s 36 43 mph 995.2mb 42f 35f
3:50 15ft 9s 7s 36 45 mph 993.2mb 42f 35f
2:50 13.5ft 9s 7s 34 40 mph 991.6mb 42f 35f
1:50 14ft 9s 7s 31 40 mph 990.2mb 42f 35f
12:50 11ft 10s 7s 31 38 mph 988.6mb 42f 36f
11:50 9ft 11s 7s 27 34 mph 987.5mb 42f 37f
10:50 10ft 11s 7s 25 31 mph 986.2mb 42f 38f
9:50 10ft 11s 7s 27 34 mph 984.6mb 42f 37f
8:50 11.5ft 11s 8s 13 18 mph 983.6mb 42f 39f
7:50 11ft 10s 8s 9 11 mph 982.8mb 42f 38f
6:50 11ft 11s 8s 11 16 mph 981.9mb 42f 40f
5:50 11.5ft 11s 8s 7 11 mph 980.9mb 42f 39f
4:50 11ft 11s 8s 7 9 mph 979.9mb 42f 39f
3:50 11ft 11s 7s 2 9 mph 979.5mb 42f 39f
2:50 12ft 11s 8s 2 4 mph 979mb 42f 43f
1:50 11.5ft 11s 8s 7 11 mph 978.6mb 42f 41f
12:50 11ft 10s 7s 11 13 mph 978.7mb 42f 41f
Sa 04/18 11:50 10ft 12s 7s 9 11 mph 978.9mb 42f 38f
10:50 10.5ft 13s 7s 20 22 mph 979mb 42f 42f
9:50 10ft 11s 7s 20 25 mph 979.5mb 42f 42f
8:50 11ft 11s 7s 20 25 mph 979.7mb 42f 42f
7:50 11ft 11s 7s 20 25 mph 979.8mb 42f 41f
6:50 10ft 11s 7s 16 22 mph 980.1mb 42f 38f
5:50 11ft 11s 7s 20 25 mph 980mb 42f 39f
4:50 10.5ft 11s 7s 18 22 mph 980.2mb 42f 36f
3:50 11ft 11s 7s 27 34 mph 979.9mb 42f 38f
2:50 10.5ft 11s 7s 18 25 mph 980.2mb 42f 39f
1:50 10.5ft 11s 7s 20 25 mph 980.4mb 42f 38f
12:50 10ft 11s 7s 25 31 mph 980.5mb 42f 38f
11:50 11ft 11s 7s 22 29 mph 980.7mb 42f 40f
10:50 10ft 12s 7s 20 22 mph 981.1mb 42f 39f
9:50 10ft 11s 7s 22 29 mph 981.1mb 42f 40f
8:50 11ft 11s 7s 25 29 mph 981.7mb 42f 39f
7:50 14ft 11s 8s 20 25 mph 982.2mb 42f 39f
6:50 12.5ft 12s 8s 16 20 mph 982.7mb 42f 40f
5:50 13ft 11s 8s 16 20 mph 982.8mb 42f 39f
4:50 13.5ft 11s 8s 13 18 mph 982.9mb 42f 40f
3:50 14ft 12s 8s 13 16 mph 983.4mb 42f 41f
2:50 13.5ft 11s 8s 9 13 mph 983.5mb 42f 41f
1:50 15ft 11s 8s 11 16 mph 983.8mb 42f 41f
12:50 13ft 12s 8s 11 13 mph 983.9mb 42f 42f
Fr 04/17 11:50 13ft 11s 8s 9 13 mph 984.3mb 42f 41f
10:50 13.5ft 10s 8s 11 16 mph 984.5mb 42f 41f
9:50 13ft 11s 8s 13 16 mph 984.4mb 42f 42f
8:50 16.5ft 11s 8s 9 11 mph 984.8mb 42f 42f
7:50 14.5ft 11s 8s 11 13 mph 985mb 42f 42f
6:50 15.5ft 11s 8s 13 18 mph 985.2mb 42f 40f
5:50 14ft 11s 7s 11 16 mph 985.4mb 42f 40f
4:50 16.5ft 9s 8s 11 16 mph 985.5mb 42f 40f
3:50 14.5ft 8s 7s 13 20 mph 985.5mb 42f 37f
2:50 16ft 9s 7s 27 34 mph 985.3mb 42f 38f
1:50 15.5ft 9s 7s 36 45 mph 986.2mb 42f 37f
12:50  -   -   -  38 45 mph 987.4mb 42f 37f
11:50 13ft 8s 6s 40 49 mph 988.7mb 42f 37f
10:50 11ft 7s 6s 36 45 mph 990.3mb 42f 37f
9:50 9.5ft 6s 5s 36 45 mph 991.9mb 41f 36f
8:50 9ft 6s 5s 34 43 mph 993.8mb 41f 35f
7:50 7.5ft 6s 5s 34 40 mph 995.5mb 41f 39f
6:50 6.5ft 5s 4s 34 38 mph 997.2mb 41f 38f
5:50 5.5ft 5s 4s 29 36 mph 998.4mb 41f 38f
4:50 5ft 11s 5s 29 34 mph 999.8mb 41f 38f
3:50 5ft 11s 5s 22 27 mph 1001.3mb 41f 37f
2:50 4.5ft 11s 5s 22 27 mph 1002.5mb 42f 38f
1:50 4.5ft 11s 6s 18 20 mph 1003.8mb 42f 36f
12:50 4.5ft 10s 6s 16 18 mph 1005.1mb 42f 37f
Do 04/16 11:50 4.5ft 10s 6s 16 18 mph 1006mb 42f 37f
10:50 5ft 11s 7s 9 13 mph 1006.9mb 42f 36f
9:50 5ft 10s 7s 7 9 mph 1007.6mb 42f 37f
8:50 5ft 10s 6s 7 11 mph 1008mb 42f 36f
7:50 6ft 11s 7s 7 11 mph 1008.3mb 42f 36f
6:50 6ft 11s 6s 7 9 mph 1008.6mb 41f 37f
5:50 6ft 9s 6s 7 11 mph 1008.9mb 41f 36f
4:50 6.5ft 10s 6s 7 11 mph 1009.1mb 41f 34f
3:50 7ft 9s 6s 9 11 mph 1009.2mb 41f 31f
2:50 7ft 10s 6s 11 16 mph 1009.4mb 41f 33f
1:50 7.5ft 11s 6s 11 13 mph 1009.4mb 41f 32f
12:50 8ft 11s 6s 11 13 mph 1009.5mb 42f 32f
11:50 7ft 11s 6s 13 18 mph 1009.3mb 42f 33f
10:50 8ft 11s 6s 18 22 mph 1009.2mb 42f 33f
9:50 8ft 6s 6s 16 18 mph 1009.1mb 42f 33f
8:50 8ft 6s 6s 13 18 mph 1008.8mb 42f 34f
7:50 8ft 6s 6s 16 22 mph 1008.8mb 42f 34f
6:50 8.5ft 11s 6s 20 25 mph 1008.4mb 42f 34f
5:50 9ft 11s 6s 18 22 mph 1008mb 42f 35f
4:50 9.5ft 7s 6s 20 25 mph 1007.5mb 42f 35f
3:50 9ft 11s 6s 18 22 mph 1007.1mb 42f 36f
2:50 10.5ft 7s 7s 22 25 mph 1006.8mb 42f 36f
1:50 9ft 7s 6s 22 27 mph 1006.5mb 42f 36f
12:50 10ft 12s 7s 22 25 mph 1006.1mb 41f 37f
Mi 04/15 11:50 11ft 13s 7s 20 25 mph 1005.6mb 41f 37f